Time;durP1;ratioP1;P1;durP2;ratioP2;P2;SDS_P1;SDS_P2;PMS_P1;PMS_P2;Temp;Humidity;BMP_temperature;BMP_pressure;BME280_temperature;BME280_humidity;BME280_pressure;Samples;Min_cycle;Max_cycle;Signal;HPM_P1;HPM_P2
2022/01/01 00:00:49;;;;;;;104.18;55.50;;;11.00;99.90;;;;;;5024579;28;20057;-68
2022/01/01 00:03:15;;;;;;;119.00;54.53;;;11.00;99.90;;;;;;4991926;28;269859;-69
2022/01/01 00:05:41;;;;;;;117.43;55.88;;;11.00;99.90;;;;;;5026065;28;20351;-69
2022/01/01 00:08:08;;;;;;;109.68;53.90;;;11.10;99.90;;;;;;5010407;28;265030;-68
2022/01/01 00:10:34;;;;;;;131.90;71.20;;;11.00;99.90;;;;;;5030600;28;20060;-69
2022/01/01 00:13:02;;;;;;;146.40;69.68;;;11.00;99.90;;;;;;5007622;28;260807;-69
2022/01/01 00:15:29;;;;;;;112.72;54.90;;;11.10;99.90;;;;;;5028936;28;20049;-70
2022/01/01 00:17:57;;;;;;;100.50;45.95;;;11.10;99.90;;;;;;5018504;28;264118;-69
2022/01/01 00:20:24;;;;;;;103.40;45.08;;;11.10;99.90;;;;;;5012687;28;20414;-68
2022/01/01 00:22:50;;;;;;;91.95;43.47;;;11.10;99.90;;;;;;5020850;28;40474;-70
2022/01/01 00:25:16;;;;;;;82.72;35.53;;;11.00;99.90;;;;;;5027579;28;20052;-71
2022/01/01 00:27:42;;;;;;;86.10;38.08;;;11.00;99.90;;;;;;5011088;28;261772;-69
2022/01/01 00:30:09;;;;;;;85.10;38.83;;;11.00;99.90;;;;;;5028863;28;20057;-68
2022/01/01 00:32:37;;;;;;;85.28;39.28;;;10.90;99.90;;;;;;5011772;28;258199;-69
2022/01/01 00:35:04;;;;;;;96.60;50.03;;;10.90;99.90;;;;;;5013461;28;20065;-70
2022/01/01 00:37:30;;;;;;;109.90;48.72;;;10.90;99.90;;;;;;5008988;28;272470;-68
2022/01/01 00:39:57;;;;;;;104.82;52.40;;;10.90;99.90;;;;;;5026745;28;20057;-69
2022/01/01 00:42:24;;;;;;;121.10;63.70;;;10.80;99.90;;;;;;5010891;28;265960;-69
2022/01/01 00:44:51;;;;;;;100.40;48.40;;;10.80;99.90;;;;;;5026028;28;20057;-68
2022/01/01 00:47:17;;;;;;;95.43;50.25;;;10.80;99.90;;;;;;4986255;28;186678;-69
2022/01/01 00:49:44;;;;;;;98.43;52.10;;;10.80;99.90;;;;;;5019828;28;20160;-68
2022/01/01 00:52:10;;;;;;;89.80;48.17;;;10.80;99.90;;;;;;4984901;28;264056;-69
2022/01/01 00:54:36;;;;;;;101.78;58.55;;;10.80;99.90;;;;;;5005939;28;20493;-68
2022/01/01 00:57:03;;;;;;;102.03;63.80;;;10.70;99.90;;;;;;5001306;28;265920;-69
2022/01/01 00:59:30;;;;;;;98.30;53.50;;;10.70;99.90;;;;;;5000249;28;20053;-69
2022/01/01 01:01:58;;;;;;;114.50;62.70;;;10.70;99.90;;;;;;4990331;28;262277;-71
2022/01/01 01:04:27;;;;;;;140.85;84.22;;;10.70;99.90;;;;;;5026985;28;20441;-69
2022/01/01 01:06:54;;;;;;;115.30;64.43;;;10.60;99.90;;;;;;5003929;28;249867;-69
2022/01/01 01:09:20;;;;;;;92.55;48.63;;;10.60;99.90;;;;;;5024285;28;20053;-69
2022/01/01 01:11:48;;;;;;;101.55;53.15;;;10.60;99.90;;;;;;5005770;28;20058;-70
2022/01/01 01:14:26;;;;;;;104.30;56.58;;;10.60;99.90;;;;;;5003985;28;193251;-68
2022/01/01 01:16:55;;;;;;;100.13;53.47;;;10.60;99.90;;;;;;5004356;28;256619;-69
2022/01/01 01:19:21;;;;;;;99.53;47.08;;;10.60;99.90;;;;;;5023589;28;20053;-70
2022/01/01 01:21:48;;;;;;;95.30;50.67;;;10.60;99.90;;;;;;5022387;28;20434;-68
2022/01/01 01:24:15;;;;;;;125.70;68.00;;;10.60;99.90;;;;;;5006407;28;236006;-68
2022/01/01 01:26:48;;;;;;;116.00;68.40;;;10.70;99.90;;;;;;5023417;28;20057;-69
2022/01/01 01:29:14;;;;;;;140.13;83.28;;;10.70;99.90;;;;;;4978494;28;234443;-67
2022/01/01 01:31:40;;;;;;;137.45;79.65;;;10.60;99.90;;;;;;5025228;28;20110;-69
2022/01/01 01:34:07;;;;;;;143.25;81.63;;;10.70;99.90;;;;;;5006735;28;276441;-68
2022/01/01 01:36:33;;;;;;;142.55;79.82;;;10.70;99.90;;;;;;5029438;28;20048;-69
2022/01/01 01:38:59;;;;;;;152.52;80.40;;;10.70;99.90;;;;;;5006310;28;284697;-68
2022/01/01 01:41:29;;;;;;;156.88;82.22;;;10.70;99.90;;;;;;5029824;28;20049;-69
2022/01/01 01:43:57;;;;;;;143.25;79.65;;;10.70;99.90;;;;;;5005757;28;276097;-69
2022/01/01 01:46:25;;;;;;;137.38;68.07;;;10.70;99.90;;;;;;5025555;28;20061;-69
2022/01/01 01:48:51;;;;;;;147.10;71.15;;;10.70;99.90;;;;;;4994613;28;68479;-68
2022/01/01 01:51:18;;;;;;;141.05;71.60;;;10.70;99.90;;;;;;5027351;28;20046;-68
2022/01/01 01:53:45;;;;;;;137.57;67.78;;;10.70;99.90;;;;;;4993191;28;253375;-69
2022/01/01 01:56:11;;;;;;;113.15;55.53;;;10.70;99.90;;;;;;5026101;28;20045;-68
2022/01/01 01:58:38;;;;;;;118.07;55.60;;;10.70;99.90;;;;;;5005189;28;267658;-69
2022/01/01 02:01:20;;;;;;;97.70;46.35;;;10.70;99.90;;;;;;5026728;28;20076;-70
2022/01/01 02:03:48;;;;;;;106.53;50.33;;;10.70;99.90;;;;;;4987230;28;269657;-69
2022/01/01 02:06:16;;;;;;;109.25;50.72;;;10.70;99.90;;;;;;5029689;28;20139;-69
2022/01/01 02:08:43;;;;;;;98.30;42.40;;;10.70;99.90;;;;;;5006281;28;274350;-68
2022/01/01 02:11:09;;;;;;;110.47;45.28;;;10.70;99.90;;;;;;5007121;28;20053;-70
2022/01/01 02:13:48;;;;;;;96.78;41.97;;;10.70;99.90;;;;;;5005016;28;253205;-68
2022/01/01 02:18:50;;;;;;;91.97;40.42;;;10.70;99.90;;;;;;4985730;28;242408;-68
2022/01/01 02:21:18;;;;;;;89.78;36.38;;;10.70;99.90;;;;;;5027287;28;20053;-68
2022/01/01 02:23:46;;;;;;;93.30;38.03;;;10.60;99.90;;;;;;5001978;28;274943;-70
2022/01/01 02:26:15;;;;;;;103.07;39.22;;;10.70;99.90;;;;;;5022338;28;20057;-69
2022/01/01 02:28:48;;;;;;;95.00;38.58;;;10.60;99.90;;;;;;5005203;28;261531;-68
2022/01/01 02:31:15;;;;;;;100.30;39.03;;;10.60;99.90;;;;;;5026388;28;20487;-69
2022/01/01 02:33:43;;;;;;;94.32;38.97;;;10.60;99.90;;;;;;4990793;28;161439;-68
2022/01/01 02:36:09;;;;;;;98.15;41.58;;;10.60;99.90;;;;;;5025269;28;20049;-68
2022/01/01 02:38:37;;;;;;;107.45;42.05;;;10.60;99.90;;;;;;5007012;28;253586;-68
2022/01/01 02:41:04;;;;;;;99.22;42.70;;;10.60;99.90;;;;;;5024105;28;20049;-68
2022/01/01 02:43:31;;;;;;;102.40;43.35;;;10.60;99.90;;;;;;5003650;28;272941;-69
2022/01/01 02:45:58;;;;;;;101.32;46.42;;;10.70;99.90;;;;;;5006522;28;20053;-68
2022/01/01 02:48:24;;;;;;;110.70;45.50;;;10.70;99.90;;;;;;4997034;28;41450;-68
2022/01/01 02:50:53;;;;;;;113.78;48.75;;;10.70;99.90;;;;;;5025777;28;20065;-69
2022/01/01 02:53:19;;;;;;;120.50;48.15;;;10.80;99.90;;;;;;4994295;28;61184;-69
2022/01/01 02:55:46;;;;;;;96.88;45.70;;;10.70;99.90;;;;;;5026314;28;20054;-69
2022/01/01 02:58:13;;;;;;;109.90;49.42;;;10.70;99.90;;;;;;5007454;28;258209;-68
2022/01/01 03:00:40;;;;;;;107.95;49.72;;;10.70;99.90;;;;;;5024072;28;21365;-69
2022/01/01 03:03:06;;;;;;;104.80;49.65;;;10.70;99.90;;;;;;4987721;28;267078;-68
2022/01/01 03:05:33;;;;;;;120.05;50.72;;;10.70;99.90;;;;;;5004865;28;20053;-69
2022/01/01 03:07:59;;;;;;;110.47;50.03;;;10.70;99.90;;;;;;4992586;28;114164;-68
2022/01/01 03:10:25;;;;;;;108.25;48.47;;;10.70;99.90;;;;;;5008262;28;20053;-69
2022/01/01 03:12:52;;;;;;;109.47;51.03;;;10.70;99.90;;;;;;4992483;28;122326;-69
2022/01/01 03:15:18;;;;;;;111.75;51.70;;;10.70;99.90;;;;;;5025003;28;20073;-70
2022/01/01 03:17:45;;;;;;;110.40;50.90;;;10.70;99.90;;;;;;5006348;28;264170;-69
2022/01/01 03:20:11;;;;;;;112.32;51.53;;;10.70;99.90;;;;;;5023876;28;20053;-68
2022/01/01 03:22:37;;;;;;;115.07;53.47;;;10.70;99.90;;;;;;5004583;28;261361;-69
2022/01/01 03:25:04;;;;;;;120.47;54.15;;;10.80;99.90;;;;;;5022996;28;20069;-69
2022/01/01 03:27:30;;;;;;;118.45;53.97;;;10.80;99.90;;;;;;5001864;28;267578;-69
2022/01/01 03:29:56;;;;;;;111.05;53.35;;;10.70;99.90;;;;;;5024599;28;20053;-69
2022/01/01 03:32:22;;;;;;;114.85;54.75;;;10.70;99.90;;;;;;5005019;28;266995;-69
2022/01/01 03:34:48;;;;;;;112.00;52.85;;;10.70;99.90;;;;;;5007744;28;20433;-69
2022/01/01 03:37:14;;;;;;;108.75;52.75;;;10.80;99.90;;;;;;5005287;28;279066;-69
2022/01/01 03:39:40;;;;;;;112.72;52.28;;;10.80;99.90;;;;;;5024436;28;20463;-69
2022/01/01 03:42:07;;;;;;;113.85;52.63;;;10.80;99.90;;;;;;5007258;28;248516;-69
2022/01/01 03:44:33;;;;;;;108.35;52.55;;;10.80;99.90;;;;;;5005845;28;20042;-70
2022/01/01 03:47:09;;;;;;;113.57;50.40;;;10.80;99.90;;;;;;4987081;28;275193;-68
2022/01/01 03:49:37;;;;;;;104.25;51.15;;;10.80;99.90;;;;;;5023950;28;20057;-69
2022/01/01 03:52:04;;;;;;;107.55;50.38;;;10.80;99.90;;;;;;5003935;28;267497;-68
2022/01/01 03:54:30;;;;;;;113.65;49.80;;;10.80;99.90;;;;;;4999043;28;20048;-67
2022/01/01 03:56:56;;;;;;;112.07;50.85;;;10.80;99.90;;;;;;5004124;28;296747;-68
2022/01/01 03:59:24;;;;;;;116.22;51.47;;;10.80;99.90;;;;;;5022198;28;20529;-68
2022/01/01 04:01:51;;;;;;;109.13;51.90;;;10.80;99.90;;;;;;4998530;28;259722;-69
2022/01/01 04:04:22;;;;;;;111.43;51.35;;;10.80;99.90;;;;;;5013016;28;28820;-69
2022/01/01 04:06:49;;;;;;;109.45;52.45;;;10.90;99.90;;;;;;5025841;28;20080;-70
2022/01/01 04:09:15;;;;;;;118.50;53.58;;;10.80;99.90;;;;;;5009549;28;52474;-70
2022/01/01 04:11:42;;;;;;;124.05;56.95;;;10.80;99.90;;;;;;5020202;28;20080;-69
2022/01/01 04:14:12;;;;;;;115.65;57.58;;;10.80;99.90;;;;;;5002297;28;277898;-69
2022/01/01 04:16:39;;;;;;;124.07;58.53;;;10.80;99.90;;;;;;5024105;28;20052;-68
2022/01/01 04:19:05;;;;;;;123.47;60.15;;;10.80;99.90;;;;;;5008761;28;86435;-71
2022/01/01 04:21:31;;;;;;;125.35;59.47;;;10.80;99.90;;;;;;5024440;28;20068;-68
2022/01/01 04:23:58;;;;;;;127.47;63.75;;;10.80;99.90;;;;;;5004122;28;255573;-70
2022/01/01 04:26:25;;;;;;;128.55;61.78;;;10.70;99.90;;;;;;5023718;28;20462;-68
2022/01/01 04:28:51;;;;;;;127.93;63.25;;;10.70;99.90;;;;;;5005152;28;264356;-68
2022/01/01 04:31:17;;;;;;;130.57;64.57;;;10.70;99.90;;;;;;5025134;28;20050;-69
2022/01/01 04:33:44;;;;;;;141.88;68.35;;;10.70;99.90;;;;;;4998303;28;274264;-69
2022/01/01 04:36:10;;;;;;;143.68;68.38;;;10.70;99.90;;;;;;5023151;28;20045;-70
2022/01/01 04:38:40;;;;;;;143.45;66.28;;;10.70;99.90;;;;;;5004851;28;137234;-68
2022/01/01 04:41:12;;;;;;;143.75;68.90;;;10.70;99.90;;;;;;5022087;28;20053;-69
2022/01/01 04:43:40;;;;;;;143.20;68.80;;;10.70;99.90;;;;;;5004350;28;262027;-70
2022/01/01 04:46:07;;;;;;;149.68;70.68;;;10.70;99.90;;;;;;5007516;28;20067;-70
2022/01/01 04:48:37;;;;;;;142.57;67.18;;;10.70;99.90;;;;;;4999581;28;265658;-68
2022/01/01 04:51:07;;;;;;;132.73;67.35;;;10.70;99.90;;;;;;5025166;28;20413;-70
2022/01/01 04:53:34;;;;;;;137.70;68.35;;;10.70;99.90;;;;;;5008750;28;257881;-70
2022/01/01 04:56:05;;;;;;;130.23;65.85;;;10.70;99.90;;;;;;5006716;28;20065;-70
2022/01/01 04:58:31;;;;;;;134.60;66.03;;;10.70;99.90;;;;;;5004295;28;264345;-68
2022/01/01 05:00:58;;;;;;;136.57;65.45;;;10.70;99.90;;;;;;5022246;28;20045;-70
2022/01/01 05:03:24;;;;;;;141.88;65.47;;;10.70;99.90;;;;;;4977406;28;222408;-69
2022/01/01 05:05:50;;;;;;;140.27;62.15;;;10.70;99.90;;;;;;5024744;28;20456;-68
2022/01/01 05:08:16;;;;;;;143.05;61.95;;;10.70;99.90;;;;;;4998018;28;39871;-68
2022/01/01 05:10:42;;;;;;;138.07;61.50;;;10.70;99.90;;;;;;5029650;28;20068;-69
2022/01/01 05:13:08;;;;;;;132.98;62.67;;;10.80;99.90;;;;;;5005830;28;262999;-69
2022/01/01 05:15:36;;;;;;;137.90;62.78;;;10.80;99.90;;;;;;5011855;28;20054;-69
2022/01/01 05:18:02;;;;;;;153.50;64.63;;;10.80;99.90;;;;;;4996951;28;95666;-71
2022/01/01 05:20:28;;;;;;;144.43;63.92;;;10.80;99.90;;;;;;5027509;28;20054;-69
2022/01/01 05:22:54;;;;;;;125.07;61.28;;;10.80;99.90;;;;;;5009513;28;260999;-68
2022/01/01 05:25:20;;;;;;;146.15;65.43;;;10.80;99.90;;;;;;5024377;28;20448;-69
2022/01/01 05:27:46;;;;;;;127.32;59.72;;;10.80;99.90;;;;;;4992968;28;225852;-69
2022/01/01 05:30:13;;;;;;;133.13;62.92;;;10.80;99.90;;;;;;5009214;28;20048;-69
2022/01/01 05:32:39;;;;;;;139.55;62.88;;;10.80;99.90;;;;;;5011663;28;277627;-68
2022/01/01 05:35:06;;;;;;;143.27;63.40;;;10.80;99.90;;;;;;5023186;28;20045;-69
2022/01/01 05:37:32;;;;;;;143.20;61.38;;;10.80;99.90;;;;;;4996018;28;108362;-69
2022/01/01 05:39:58;;;;;;;144.57;60.75;;;10.80;99.90;;;;;;5009126;28;20505;-68
2022/01/01 05:42:24;;;;;;;141.73;59.33;;;10.80;99.90;;;;;;5006954;28;264160;-69
2022/01/01 05:44:50;;;;;;;131.27;56.22;;;10.80;99.90;;;;;;5008105;28;20049;-70
2022/01/01 05:47:17;;;;;;;138.88;55.28;;;10.80;99.90;;;;;;5009716;28;258045;-69
2022/01/01 05:49:43;;;;;;;121.72;51.63;;;10.80;99.90;;;;;;5007339;28;20061;-70
2022/01/01 05:52:09;;;;;;;114.47;47.33;;;10.80;99.90;;;;;;4987945;28;272378;-68
2022/01/01 05:54:36;;;;;;;121.32;46.50;;;10.80;99.90;;;;;;5024853;28;20041;-69
2022/01/01 05:57:02;;;;;;;94.82;37.42;;;10.80;99.90;;;;;;5009052;28;273282;-69
2022/01/01 05:59:28;;;;;;;97.18;34.28;;;10.80;99.90;;;;;;5020867;28;20045;-71
2022/01/01 06:01:55;;;;;;;96.63;33.90;;;10.90;99.90;;;;;;4997262;28;250994;-69
2022/01/01 06:04:21;;;;;;;108.63;32.92;;;10.90;99.90;;;;;;5029831;28;20473;-69
2022/01/01 06:06:47;;;;;;;106.30;33.13;;;10.90;99.90;;;;;;5026837;28;20529;-68
2022/01/01 06:09:13;;;;;;;93.68;32.30;;;10.90;99.90;;;;;;5003977;28;268862;-69
2022/01/01 06:11:39;;;;;;;97.25;32.53;;;10.90;99.90;;;;;;5027467;28;20050;-69
2022/01/01 06:14:05;;;;;;;96.43;31.42;;;10.90;99.90;;;;;;5005269;28;258105;-69
2022/01/01 06:16:31;;;;;;;87.03;30.73;;;10.90;99.90;;;;;;5028156;28;20049;-69
2022/01/01 06:18:58;;;;;;;93.05;30.67;;;10.90;99.90;;;;;;5005112;28;256521;-69
2022/01/01 06:21:24;;;;;;;100.25;31.35;;;10.90;99.90;;;;;;5027142;28;20056;-70
2022/01/01 06:23:50;;;;;;;94.90;30.65;;;10.90;99.90;;;;;;5007433;28;255987;-69
2022/01/01 06:26:16;;;;;;;93.80;29.58;;;10.90;99.90;;;;;;5025778;28;20541;-69
2022/01/01 06:28:42;;;;;;;93.03;28.92;;;11.00;99.90;;;;;;5002516;28;275839;-68
2022/01/01 06:31:08;;;;;;;86.13;27.65;;;11.00;99.90;;;;;;5006985;28;20407;-69
2022/01/01 06:33:34;;;;;;;86.05;30.40;;;11.00;99.90;;;;;;5006456;28;275255;-68
2022/01/01 06:36:00;;;;;;;92.35;28.80;;;11.00;99.90;;;;;;5024023;28;20148;-69
2022/01/01 06:38:27;;;;;;;84.95;28.45;;;11.00;99.90;;;;;;5006150;28;259425;-69
2022/01/01 06:40:53;;;;;;;94.07;28.20;;;11.00;99.90;;;;;;5028157;28;20435;-68
2022/01/01 06:43:22;;;;;;;91.72;28.75;;;11.00;99.90;;;;;;4995195;28;263465;-70
2022/01/01 06:45:48;;;;;;;91.20;27.73;;;11.00;99.90;;;;;;5021319;28;20073;-68
2022/01/01 06:48:14;;;;;;;83.20;28.27;;;11.00;99.90;;;;;;4996101;28;86967;-69
2022/01/01 06:50:40;;;;;;;94.88;28.35;;;11.10;99.90;;;;;;5010560;28;20534;-69
2022/01/01 06:53:06;;;;;;;85.40;27.13;;;11.10;99.90;;;;;;5005148;28;255846;-69
2022/01/01 06:55:33;;;;;;;84.18;27.10;;;11.10;99.90;;;;;;5024262;28;20053;-69
2022/01/01 06:57:59;;;;;;;91.43;27.60;;;11.10;99.90;;;;;;5005828;28;271634;-69
2022/01/01 07:00:25;;;;;;;91.13;26.65;;;11.10;99.90;;;;;;5023581;28;20176;-69
2022/01/01 07:02:51;;;;;;;82.10;25.58;;;11.10;99.90;;;;;;4995814;28;198823;-69
2022/01/01 07:05:17;;;;;;;83.32;26.10;;;11.10;99.90;;;;;;5022276;28;20064;-69
2022/01/01 07:07:43;;;;;;;82.05;24.65;;;11.20;99.90;;;;;;4999661;28;261730;-69
2022/01/01 07:10:11;;;;;;;83.10;26.02;;;11.20;99.90;;;;;;5001120;28;20057;-69
2022/01/01 07:12:38;;;;;;;81.28;25.10;;;11.20;99.90;;;;;;5001981;28;262848;-70
2022/01/01 07:15:06;;;;;;;83.90;24.70;;;11.30;99.90;;;;;;5026384;28;20053;-69
2022/01/01 07:17:32;;;;;;;75.78;23.35;;;11.30;99.90;;;;;;5004507;28;261423;-68
2022/01/01 07:19:58;;;;;;;74.75;24.38;;;11.30;99.90;;;;;;5023324;28;20049;-69
2022/01/01 07:22:24;;;;;;;79.47;24.60;;;11.30;99.90;;;;;;5004030;28;252881;-68
2022/01/01 07:24:51;;;;;;;71.60;24.33;;;11.30;99.90;;;;;;5004550;28;20077;-69
2022/01/01 07:27:17;;;;;;;72.63;25.23;;;11.30;99.90;;;;;;5003630;28;261596;-69
2022/01/01 07:29:43;;;;;;;73.30;24.60;;;11.30;99.90;;;;;;5021613;28;20036;-70
2022/01/01 07:32:09;;;;;;;72.60;23.63;;;11.30;99.90;;;;;;5007430;28;255857;-69
2022/01/01 07:34:35;;;;;;;72.47;23.08;;;11.30;99.90;;;;;;5020676;28;20057;-69
2022/01/01 07:37:02;;;;;;;71.70;23.13;;;11.30;99.90;;;;;;5000559;28;277457;-69
2022/01/01 07:39:28;;;;;;;71.93;23.25;;;11.40;99.90;;;;;;5023415;28;20041;-69
2022/01/01 07:41:54;;;;;;;63.33;23.65;;;11.40;99.90;;;;;;5004835;28;274045;-68
2022/01/01 07:44:21;;;;;;;69.72;24.88;;;11.40;99.90;;;;;;5021165;28;20057;-68
2022/01/01 07:46:49;;;;;;;63.17;24.00;;;11.40;99.90;;;;;;5030947;28;20521;-69
2022/01/01 07:49:15;;;;;;;66.53;23.70;;;11.40;99.90;;;;;;5010793;28;170217;-69
2022/01/01 07:51:41;;;;;;;80.72;25.42;;;11.40;99.90;;;;;;5020715;28;20137;-69
2022/01/01 07:54:07;;;;;;;68.88;25.02;;;11.40;99.90;;;;;;5002317;28;259355;-70
2022/01/01 07:56:33;;;;;;;63.55;25.35;;;11.40;99.90;;;;;;5024063;28;20045;-69
2022/01/01 07:58:59;;;;;;;68.63;26.48;;;11.50;99.90;;;;;;5002789;28;254722;-69
2022/01/01 08:01:25;;;;;;;69.57;25.70;;;11.40;99.90;;;;;;5021926;28;20045;-68
2022/01/01 08:03:51;;;;;;;65.93;26.33;;;11.50;99.90;;;;;;4988479;28;268638;-68
2022/01/01 08:06:17;;;;;;;70.95;26.25;;;11.50;99.90;;;;;;5023663;28;20053;-68
2022/01/01 08:08:44;;;;;;;72.70;25.75;;;11.50;99.90;;;;;;4991863;28;112792;-68
2022/01/01 08:11:10;;;;;;;72.13;26.77;;;11.50;99.90;;;;;;5025203;28;20057;-69
2022/01/01 08:13:36;;;;;;;70.45;26.63;;;11.50;99.90;;;;;;5000288;28;254360;-68
2022/01/01 08:16:03;;;;;;;67.28;26.65;;;11.50;99.90;;;;;;5020933;28;20085;-69
2022/01/01 08:18:31;;;;;;;68.55;27.02;;;11.50;99.90;;;;;;4998803;28;269821;-68
2022/01/01 08:20:58;;;;;;;76.43;27.48;;;11.50;99.90;;;;;;5021932;28;20057;-69
2022/01/01 08:23:24;;;;;;;69.30;27.33;;;11.50;99.90;;;;;;4998729;28;260517;-69
2022/01/01 08:25:50;;;;;;;72.65;28.52;;;11.60;99.90;;;;;;5024549;28;20515;-68
2022/01/01 08:28:16;;;;;;;76.22;29.42;;;11.50;99.90;;;;;;5002988;28;265347;-68
2022/01/01 08:30:42;;;;;;;75.00;28.45;;;11.60;99.90;;;;;;5022880;28;20080;-69
2022/01/01 08:33:08;;;;;;;77.28;28.70;;;11.60;99.90;;;;;;5004696;28;252209;-69
2022/01/01 08:35:35;;;;;;;80.35;30.00;;;11.60;99.90;;;;;;5007847;28;20140;-69
2022/01/01 08:38:04;;;;;;;72.85;30.08;;;11.60;99.90;;;;;;5005957;28;252890;-68
2022/01/01 08:40:31;;;;;;;78.43;31.38;;;11.60;99.90;;;;;;5006014;28;20447;-69
2022/01/01 08:42:58;;;;;;;68.55;31.70;;;11.60;99.90;;;;;;5000931;28;252516;-67
2022/01/01 08:45:25;;;;;;;68.82;30.45;;;11.70;99.90;;;;;;5002316;28;20052;-70
2022/01/01 08:47:51;;;;;;;74.78;29.63;;;11.70;99.90;;;;;;5005239;28;273476;-68
2022/01/01 08:50:18;;;;;;;75.32;31.80;;;11.70;99.90;;;;;;5008903;28;20386;-67
2022/01/01 08:52:44;;;;;;;67.22;30.33;;;11.70;99.90;;;;;;5004406;28;273497;-68
2022/01/01 08:55:11;;;;;;;79.53;29.00;;;11.70;99.90;;;;;;5020022;28;20049;-67
2022/01/01 08:57:37;;;;;;;77.82;30.38;;;11.80;99.90;;;;;;4998730;28;276084;-68
2022/01/01 09:00:08;;;;;;;62.58;30.08;;;11.80;99.90;;;;;;5001704;28;20041;-69
2022/01/01 09:02:34;;;;;;;72.75;30.75;;;11.80;99.90;;;;;;4981612;28;256845;-68
2022/01/01 09:05:01;;;;;;;60.38;28.02;;;11.80;99.90;;;;;;5013678;28;20438;-68
2022/01/01 09:07:29;;;;;;;68.13;29.52;;;11.90;99.90;;;;;;5003049;28;254333;-68
2022/01/01 09:09:59;;;;;;;67.90;29.60;;;11.90;99.90;;;;;;5018986;28;20052;-69
2022/01/01 09:12:29;;;;;;;61.85;29.88;;;11.90;99.90;;;;;;5000207;28;259501;-68
2022/01/01 09:14:56;;;;;;;69.63;30.27;;;12.00;99.90;;;;;;5020506;28;20045;-69
2022/01/01 09:17:23;;;;;;;64.32;29.50;;;12.00;99.90;;;;;;4989375;28;215961;-69
2022/01/01 09:19:49;;;;;;;55.45;27.38;;;12.00;99.90;;;;;;5017253;28;20045;-69
2022/01/01 09:22:16;;;;;;;53.50;27.13;;;12.10;99.90;;;;;;5001938;28;256399;-68
2022/01/01 09:24:42;;;;;;;60.08;27.23;;;12.10;99.90;;;;;;5006580;28;20136;-68
2022/01/01 09:27:08;;;;;;;51.97;24.60;;;12.10;99.90;;;;;;4983895;28;268975;-68
2022/01/01 09:29:34;;;;;;;56.45;25.63;;;12.20;99.90;;;;;;5020297;28;20049;-69
2022/01/01 09:32:02;;;;;;;49.80;25.02;;;12.20;99.90;;;;;;5003498;28;268620;-68
2022/01/01 09:34:28;;;;;;;57.45;25.45;;;12.30;99.90;;;;;;5021321;28;20065;-68
2022/01/01 09:36:54;;;;;;;48.47;24.40;;;12.30;99.90;;;;;;5003457;28;259891;-68
2022/01/01 09:39:21;;;;;;;46.92;22.60;;;12.30;99.90;;;;;;4999780;28;20046;-68
2022/01/01 09:41:47;;;;;;;46.38;23.48;;;12.30;99.90;;;;;;5003128;28;20064;-70
2022/01/01 09:44:17;;;;;;;46.70;22.98;;;12.30;99.90;;;;;;4999528;28;253535;-69
2022/01/01 09:46:46;;;;;;;51.80;22.80;;;12.30;99.90;;;;;;5026147;28;20049;-68
2022/01/01 09:49:19;;;;;;;44.80;22.13;;;12.30;99.90;;;;;;4993956;28;260047;-70
2022/01/01 09:51:46;;;;;;;45.80;21.90;;;12.40;99.90;;;;;;5019646;28;21541;-69
2022/01/01 09:54:12;;;;;;;40.10;20.80;;;12.40;99.90;;;;;;4998677;28;264499;-68
2022/01/01 09:56:39;;;;;;;44.47;20.63;;;12.40;99.90;;;;;;5022631;28;20053;-69
2022/01/01 09:59:05;;;;;;;42.63;20.85;;;12.40;99.90;;;;;;5001298;28;273339;-69
2022/01/01 10:01:32;;;;;;;40.58;20.80;;;12.40;99.90;;;;;;5008542;28;20061;-68
2022/01/01 10:03:59;;;;;;;46.05;20.92;;;12.50;99.90;;;;;;4975543;28;212656;-68
2022/01/01 10:06:30;;;;;;;41.47;19.13;;;12.40;99.90;;;;;;5023239;28;20366;-70
2022/01/01 10:08:58;;;;;;;40.67;19.20;;;12.40;99.90;;;;;;5002222;28;259355;-68
2022/01/01 10:11:25;;;;;;;36.78;19.52;;;12.40;99.90;;;;;;5024422;28;20052;-68
2022/01/01 10:13:52;;;;;;;37.95;19.40;;;12.50;99.90;;;;;;4999418;28;263842;-68
2022/01/01 10:16:18;;;;;;;37.95;19.80;;;12.50;99.90;;;;;;5024309;28;20050;-68
2022/01/01 10:18:46;;;;;;;34.78;18.88;;;12.50;99.90;;;;;;5002934;28;259628;-68
2022/01/01 10:21:14;;;;;;;39.63;19.35;;;12.50;99.90;;;;;;5023878;28;20045;-68
2022/01/01 10:23:43;;;;;;;34.72;18.58;;;12.40;99.90;;;;;;5002784;28;271006;-69
2022/01/01 10:29:23;;;;;;;43.17;20.05;;;12.50;99.90;;;;;;4998724;28;265002;-68
2022/01/01 10:32:13;;;;;;;38.75;18.25;;;12.40;99.90;;;;;;5006633;28;20053;-68
2022/01/01 10:34:47;;;;;;;38.00;19.33;;;12.40;99.90;;;;;;4904586;29;20047;-70
2022/01/01 10:37:14;;;;;;;47.47;22.30;;;12.40;99.90;;;;;;4928535;28;120653;-70
2022/01/01 10:39:51;;;;;;;40.67;20.02;;;12.50;99.90;;;;;;4944285;28;20597;-69
2022/01/01 10:42:18;;;;;;;40.95;20.05;;;12.50;99.90;;;;;;4930045;28;39394;-69
2022/01/01 10:44:49;;;;;;;38.05;17.77;;;12.50;99.90;;;;;;4942272;28;20051;-70
2022/01/01 10:47:28;;;;;;;34.65;16.70;;;12.50;99.90;;;;;;4920075;29;248497;-69
2022/01/01 10:52:32;;;;;;;32.72;16.70;;;12.50;99.90;;;;;;4928137;28;174184;-69
2022/01/01 10:55:04;;;;;;;31.20;14.70;;;12.60;99.90;;;;;;4926729;29;20055;-70
2022/01/01 10:57:33;;;;;;;;;;;12.60;99.90;;;;;;4928798;28;156265;-68
2022/01/01 11:00:17;;;;;;;32.55;14.27;;;12.60;99.90;;;;;;4947165;28;19929;-68
2022/01/01 11:02:49;;;;;;;32.35;14.45;;;12.70;99.90;;;;;;4911877;28;192675;-69
2022/01/01 11:05:15;;;;;;;29.55;13.82;;;12.70;99.90;;;;;;4925441;29;20055;-69
2022/01/01 11:07:52;;;;;;;29.15;13.38;;;12.70;99.90;;;;;;4934294;28;57477;-69
2022/01/01 11:10:20;;;;;;;27.58;12.55;;;12.80;99.90;;;;;;4932442;29;20055;-69
2022/01/01 11:12:46;;;;;;;27.40;12.52;;;12.80;99.90;;;;;;4995399;28;263717;-69
2022/01/01 11:15:13;;;;;;;26.38;11.27;;;12.80;99.90;;;;;;5022826;28;20049;-70
2022/01/01 11:17:40;;;;;;;26.98;11.25;;;12.80;99.90;;;;;;5002404;28;271561;-70
2022/01/01 11:20:07;;;;;;;27.83;11.32;;;12.70;99.90;;;;;;5022718;28;20057;-69
2022/01/01 11:22:33;;;;;;;23.65;10.43;;;12.80;99.90;;;;;;5006517;28;274633;-69
2022/01/01 11:25:00;;;;;;;25.90;10.05;;;12.70;99.90;;;;;;5006257;28;20386;-69
2022/01/01 11:27:27;;;;;;;23.52;8.98;;;12.70;99.90;;;;;;5002823;28;256601;-68
2022/01/01 11:29:55;;;;;;;20.00;9.02;;;12.70;99.90;;;;;;5004884;28;20346;-69
2022/01/01 11:32:33;;;;;;;27.63;9.25;;;12.70;99.90;;;;;;5002952;28;262921;-68
2022/01/01 11:35:00;;;;;;;23.20;8.77;;;12.80;99.90;;;;;;5005571;28;20072;-69
2022/01/01 11:37:26;;;;;;;25.95;8.65;;;12.80;99.90;;;;;;5002069;28;267971;-70
2022/01/01 11:39:56;;;;;;;25.08;8.63;;;12.80;99.90;;;;;;5019329;28;20053;-68
2022/01/01 11:42:23;;;;;;;20.97;8.27;;;12.80;99.90;;;;;;5000593;28;272023;-70
2022/01/01 11:44:53;;;;;;;20.27;8.10;;;12.80;99.90;;;;;;5026117;28;20060;-68
2022/01/01 11:47:24;;;;;;;20.88;8.27;;;12.80;99.90;;;;;;5008508;28;276141;-69
2022/01/01 11:49:51;;;;;;;;;;;12.80;99.90;;;;;;5027133;28;20502;-68
2022/01/01 11:52:39;;;;;;;25.55;8.73;;;12.80;99.90;;;;;;5002513;28;223188;-69
2022/01/01 11:55:15;;;;;;;22.38;7.10;;;12.80;99.90;;;;;;5024879;28;20065;-69
2022/01/01 11:57:59;;;;;;;18.38;6.90;;;12.80;99.90;;;;;;4999792;28;272370;-69
2022/01/01 12:00:25;;;;;;;20.10;7.03;;;12.80;99.90;;;;;;5003385;28;20065;-69
2022/01/01 12:03:13;;;;;;;18.83;7.13;;;12.80;99.90;;;;;;4997711;28;184774;-69
2022/01/01 12:05:39;;;;;;;23.00;6.28;;;12.90;99.90;;;;;;5023396;28;20056;-69
2022/01/01 12:08:06;;;;;;;23.08;7.03;;;12.80;99.90;;;;;;5001454;28;279651;-70
2022/01/01 12:10:35;;;;;;;21.20;7.18;;;12.90;99.90;;;;;;5026754;28;20052;-72
2022/01/01 12:13:09;;;;;;;19.13;6.20;;;12.80;99.90;;;;;;5002314;28;265572;-69
2022/01/01 12:15:49;;;;;;;22.85;6.97;;;12.80;99.90;;;;;;5009707;28;20045;-69
2022/01/01 12:18:23;;;;;;;23.30;7.20;;;12.90;99.90;;;;;;5003756;28;256953;-70
2022/01/01 12:21:01;;;;;;;24.42;8.65;;;12.80;99.90;;;;;;5031845;28;20041;-69
2022/01/01 12:23:36;;;;;;;14.95;5.90;;;12.80;99.90;;;;;;5000113;28;257481;-70
2022/01/01 12:26:08;;;;;;;20.20;6.55;;;12.90;99.90;;;;;;5023545;28;20063;-67
2022/01/01 12:28:36;;;;;;;17.92;6.82;;;12.80;99.90;;;;;;5001023;28;20248;-69
2022/01/01 12:31:10;;;;;;;19.65;6.30;;;12.80;99.90;;;;;;5012078;28;20057;-69